sensor_id;sensor_type;location;lat;lon;timestamp;P1;durP1;ratioP1;P2;durP2;ratioP2
31978;SDS011;18502;43.574;1.276;2023-03-15T00:01:16;36.25;;;3.83;;
31978;SDS011;18502;43.574;1.276;2023-03-15T00:03:43;28.80;;;4.80;;
31978;SDS011;18502;43.574;1.276;2023-03-15T00:06:09;31.95;;;4.43;;
31978;SDS011;18502;43.574;1.276;2023-03-15T00:08:35;34.08;;;4.25;;
31978;SDS011;18502;43.574;1.276;2023-03-15T00:11:01;32.30;;;4.00;;
31978;SDS011;18502;43.574;1.276;2023-03-15T00:13:28;22.15;;;3.78;;
31978;SDS011;18502;43.574;1.276;2023-03-15T00:15:58;33.80;;;4.47;;
31978;SDS011;18502;43.574;1.276;2023-03-15T00:18:25;35.65;;;5.03;;
31978;SDS011;18502;43.574;1.276;2023-03-15T00:20:51;30.20;;;5.18;;
31978;SDS011;18502;43.574;1.276;2023-03-15T00:23:17;34.10;;;4.07;;
31978;SDS011;18502;43.574;1.276;2023-03-15T00:25:43;27.48;;;4.22;;
31978;SDS011;18502;43.574;1.276;2023-03-15T00:28:10;31.17;;;5.85;;
31978;SDS011;18502;43.574;1.276;2023-03-15T00:30:36;26.40;;;5.95;;
31978;SDS011;18502;43.574;1.276;2023-03-15T00:33:02;31.20;;;4.13;;
31978;SDS011;18502;43.574;1.276;2023-03-15T00:35:30;31.27;;;4.95;;
31978;SDS011;18502;43.574;1.276;2023-03-15T00:37:57;44.80;;;5.05;;
31978;SDS011;18502;43.574;1.276;2023-03-15T00:40:23;29.05;;;4.28;;
31978;SDS011;18502;43.574;1.276;2023-03-15T00:42:49;25.75;;;4.22;;
31978;SDS011;18502;43.574;1.276;2023-03-15T00:45:16;21.27;;;4.22;;
31978;SDS011;18502;43.574;1.276;2023-03-15T00:47:43;27.10;;;4.03;;
31978;SDS011;18502;43.574;1.276;2023-03-15T00:50:09;28.67;;;3.85;;
31978;SDS011;18502;43.574;1.276;2023-03-15T00:52:35;29.20;;;3.35;;
31978;SDS011;18502;43.574;1.276;2023-03-15T00:55:03;24.92;;;3.35;;
31978;SDS011;18502;43.574;1.276;2023-03-15T00:57:31;23.75;;;3.15;;
31978;SDS011;18502;43.574;1.276;2023-03-15T00:59:58;25.15;;;3.30;;
31978;SDS011;18502;43.574;1.276;2023-03-15T01:02:24;27.60;;;4.25;;
31978;SDS011;18502;43.574;1.276;2023-03-15T01:04:49;28.25;;;4.05;;
31978;SDS011;18502;43.574;1.276;2023-03-15T01:07:15;25.65;;;4.18;;
31978;SDS011;18502;43.574;1.276;2023-03-15T01:09:41;25.52;;;5.18;;
31978;SDS011;18502;43.574;1.276;2023-03-15T01:12:08;28.35;;;3.65;;
31978;SDS011;18502;43.574;1.276;2023-03-15T01:14:34;28.58;;;3.03;;
31978;SDS011;18502;43.574;1.276;2023-03-15T01:17:01;25.67;;;4.25;;
31978;SDS011;18502;43.574;1.276;2023-03-15T01:19:27;22.55;;;3.05;;
31978;SDS011;18502;43.574;1.276;2023-03-15T01:21:52;22.95;;;2.83;;
31978;SDS011;18502;43.574;1.276;2023-03-15T01:24:18;23.67;;;2.65;;
31978;SDS011;18502;43.574;1.276;2023-03-15T01:26:44;22.95;;;3.85;;
31978;SDS011;18502;43.574;1.276;2023-03-15T01:29:10;18.33;;;2.90;;
31978;SDS011;18502;43.574;1.276;2023-03-15T01:31:37;20.42;;;2.70;;
31978;SDS011;18502;43.574;1.276;2023-03-15T01:34:03;24.05;;;4.60;;
31978;SDS011;18502;43.574;1.276;2023-03-15T01:36:30;28.50;;;4.05;;
31978;SDS011;18502;43.574;1.276;2023-03-15T01:38:56;23.70;;;5.90;;
31978;SDS011;18502;43.574;1.276;2023-03-15T01:41:22;23.27;;;2.95;;
31978;SDS011;18502;43.574;1.276;2023-03-15T01:43:49;12.43;;;2.45;;
31978;SDS011;18502;43.574;1.276;2023-03-15T01:49:29;30.52;;;3.25;;
31978;SDS011;18502;43.574;1.276;2023-03-15T01:51:40;21.42;;;3.90;;
31978;SDS011;18502;43.574;1.276;2023-03-15T01:56:47;25.23;;;3.90;;
31978;SDS011;18502;43.574;1.276;2023-03-15T01:59:20;30.20;;;3.08;;
31978;SDS011;18502;43.574;1.276;2023-03-15T02:01:49;17.00;;;3.20;;
31978;SDS011;18502;43.574;1.276;2023-03-15T02:04:20;22.65;;;3.22;;
31978;SDS011;18502;43.574;1.276;2023-03-15T02:06:49;21.80;;;3.05;;
31978;SDS011;18502;43.574;1.276;2023-03-15T02:09:23;17.58;;;2.70;;
31978;SDS011;18502;43.574;1.276;2023-03-15T02:11:53;20.45;;;3.58;;
31978;SDS011;18502;43.574;1.276;2023-03-15T02:14:20;23.55;;;3.33;;
31978;SDS011;18502;43.574;1.276;2023-03-15T02:16:47;17.92;;;2.90;;
31978;SDS011;18502;43.574;1.276;2023-03-15T02:19:23;16.58;;;3.33;;
31978;SDS011;18502;43.574;1.276;2023-03-15T02:22:09;21.20;;;3.83;;
31978;SDS011;18502;43.574;1.276;2023-03-15T02:27:26;15.82;;;2.80;;
31978;SDS011;18502;43.574;1.276;2023-03-15T02:29:55;25.50;;;3.33;;
31978;SDS011;18502;43.574;1.276;2023-03-15T02:32:20;20.58;;;3.65;;
31978;SDS011;18502;43.574;1.276;2023-03-15T02:34:46;13.82;;;2.22;;
31978;SDS011;18502;43.574;1.276;2023-03-15T02:37:12;20.58;;;2.63;;
31978;SDS011;18502;43.574;1.276;2023-03-15T02:39:37;13.82;;;2.55;;
31978;SDS011;18502;43.574;1.276;2023-03-15T02:42:03;16.08;;;2.85;;
31978;SDS011;18502;43.574;1.276;2023-03-15T02:44:31;26.77;;;3.60;;
31978;SDS011;18502;43.574;1.276;2023-03-15T02:47:41;22.23;;;3.25;;
31978;SDS011;18502;43.574;1.276;2023-03-15T02:49:51;21.45;;;3.08;;
31978;SDS011;18502;43.574;1.276;2023-03-15T02:52:20;14.02;;;2.00;;
31978;SDS011;18502;43.574;1.276;2023-03-15T02:54:47;16.55;;;2.60;;
31978;SDS011;18502;43.574;1.276;2023-03-15T02:57:13;21.80;;;3.00;;
31978;SDS011;18502;43.574;1.276;2023-03-15T02:59:40;13.85;;;1.80;;
31978;SDS011;18502;43.574;1.276;2023-03-15T03:02:07;15.60;;;2.30;;
31978;SDS011;18502;43.574;1.276;2023-03-15T03:04:35;17.45;;;2.97;;
31978;SDS011;18502;43.574;1.276;2023-03-15T03:07:01;15.45;;;2.55;;
31978;SDS011;18502;43.574;1.276;2023-03-15T03:09:27;15.10;;;2.38;;
31978;SDS011;18502;43.574;1.276;2023-03-15T03:11:53;20.83;;;3.13;;
31978;SDS011;18502;43.574;1.276;2023-03-15T03:14:18;17.85;;;3.17;;
31978;SDS011;18502;43.574;1.276;2023-03-15T03:16:47;17.63;;;2.33;;
31978;SDS011;18502;43.574;1.276;2023-03-15T03:19:14;23.58;;;3.05;;
31978;SDS011;18502;43.574;1.276;2023-03-15T03:21:39;15.77;;;2.40;;
31978;SDS011;18502;43.574;1.276;2023-03-15T03:24:08;16.27;;;2.70;;
31978;SDS011;18502;43.574;1.276;2023-03-15T03:26:35;11.68;;;2.20;;
31978;SDS011;18502;43.574;1.276;2023-03-15T03:29:02;16.42;;;2.85;;
31978;SDS011;18502;43.574;1.276;2023-03-15T03:31:31;22.42;;;2.45;;
31978;SDS011;18502;43.574;1.276;2023-03-15T03:33:57;19.52;;;2.83;;
31978;SDS011;18502;43.574;1.276;2023-03-15T03:36:23;18.33;;;3.22;;
31978;SDS011;18502;43.574;1.276;2023-03-15T03:38:49;14.77;;;2.03;;
31978;SDS011;18502;43.574;1.276;2023-03-15T03:41:15;18.52;;;3.28;;
31978;SDS011;18502;43.574;1.276;2023-03-15T03:43:41;22.25;;;2.92;;
31978;SDS011;18502;43.574;1.276;2023-03-15T03:46:07;18.23;;;2.35;;
31978;SDS011;18502;43.574;1.276;2023-03-15T03:48:33;16.40;;;3.03;;
31978;SDS011;18502;43.574;1.276;2023-03-15T03:50:59;19.65;;;2.60;;
31978;SDS011;18502;43.574;1.276;2023-03-15T03:53:25;16.00;;;2.22;;
31978;SDS011;18502;43.574;1.276;2023-03-15T03:55:50;17.83;;;1.85;;
31978;SDS011;18502;43.574;1.276;2023-03-15T03:58:18;16.27;;;2.72;;
31978;SDS011;18502;43.574;1.276;2023-03-15T04:00:44;17.98;;;2.17;;
31978;SDS011;18502;43.574;1.276;2023-03-15T04:03:10;18.92;;;2.95;;
31978;SDS011;18502;43.574;1.276;2023-03-15T04:05:36;16.77;;;2.20;;
31978;SDS011;18502;43.574;1.276;2023-03-15T04:08:02;12.77;;;1.95;;
31978;SDS011;18502;43.574;1.276;2023-03-15T04:10:28;13.25;;;2.35;;
31978;SDS011;18502;43.574;1.276;2023-03-15T04:15:24;16.27;;;2.03;;
31978;SDS011;18502;43.574;1.276;2023-03-15T04:17:51;18.88;;;2.55;;
31978;SDS011;18502;43.574;1.276;2023-03-15T04:20:28;16.92;;;2.80;;
31978;SDS011;18502;43.574;1.276;2023-03-15T04:22:58;22.95;;;3.65;;
31978;SDS011;18502;43.574;1.276;2023-03-15T04:25:24;24.85;;;3.33;;
31978;SDS011;18502;43.574;1.276;2023-03-15T04:27:50;11.75;;;2.38;;
31978;SDS011;18502;43.574;1.276;2023-03-15T04:30:24;18.75;;;2.03;;
31978;SDS011;18502;43.574;1.276;2023-03-15T04:32:51;17.38;;;2.20;;
31978;SDS011;18502;43.574;1.276;2023-03-15T04:35:29;15.55;;;3.47;;
31978;SDS011;18502;43.574;1.276;2023-03-15T04:37:59;19.60;;;3.13;;
31978;SDS011;18502;43.574;1.276;2023-03-15T04:40:25;15.00;;;2.80;;
31978;SDS011;18502;43.574;1.276;2023-03-15T04:42:51;19.60;;;3.22;;
31978;SDS011;18502;43.574;1.276;2023-03-15T04:45:23;16.77;;;1.75;;
31978;SDS011;18502;43.574;1.276;2023-03-15T04:47:51;22.65;;;3.60;;
31978;SDS011;18502;43.574;1.276;2023-03-15T04:50:17;14.10;;;2.35;;
31978;SDS011;18502;43.574;1.276;2023-03-15T04:52:44;16.65;;;2.75;;
31978;SDS011;18502;43.574;1.276;2023-03-15T04:55:10;13.52;;;2.45;;
31978;SDS011;18502;43.574;1.276;2023-03-15T04:57:36;18.02;;;1.98;;
31978;SDS011;18502;43.574;1.276;2023-03-15T05:00:02;17.55;;;2.85;;
31978;SDS011;18502;43.574;1.276;2023-03-15T05:02:32;21.90;;;3.35;;
31978;SDS011;18502;43.574;1.276;2023-03-15T05:04:58;17.98;;;2.95;;
31978;SDS011;18502;43.574;1.276;2023-03-15T05:07:24;14.40;;;2.45;;
31978;SDS011;18502;43.574;1.276;2023-03-15T05:09:50;7.05;;;1.35;;
31978;SDS011;18502;43.574;1.276;2023-03-15T05:12:16;12.65;;;2.63;;
31978;SDS011;18502;43.574;1.276;2023-03-15T05:14:41;19.33;;;2.67;;
31978;SDS011;18502;43.574;1.276;2023-03-15T05:17:07;15.43;;;2.92;;
31978;SDS011;18502;43.574;1.276;2023-03-15T05:19:33;13.95;;;2.63;;
31978;SDS011;18502;43.574;1.276;2023-03-15T05:21:59;18.65;;;2.92;;
31978;SDS011;18502;43.574;1.276;2023-03-15T05:24:26;13.88;;;2.38;;
31978;SDS011;18502;43.574;1.276;2023-03-15T05:26:52;17.45;;;2.65;;
31978;SDS011;18502;43.574;1.276;2023-03-15T05:29:18;14.93;;;2.17;;
31978;SDS011;18502;43.574;1.276;2023-03-15T05:31:48;24.50;;;2.35;;
31978;SDS011;18502;43.574;1.276;2023-03-15T05:34:16;19.10;;;2.00;;
31978;SDS011;18502;43.574;1.276;2023-03-15T05:36:42;14.05;;;2.70;;
31978;SDS011;18502;43.574;1.276;2023-03-15T05:39:08;11.68;;;2.22;;
31978;SDS011;18502;43.574;1.276;2023-03-15T05:41:33;22.38;;;2.22;;
31978;SDS011;18502;43.574;1.276;2023-03-15T05:43:59;14.20;;;2.15;;
31978;SDS011;18502;43.574;1.276;2023-03-15T05:46:25;21.02;;;2.58;;
31978;SDS011;18502;43.574;1.276;2023-03-15T05:48:51;12.73;;;2.00;;
31978;SDS011;18502;43.574;1.276;2023-03-15T05:51:17;20.48;;;2.78;;
31978;SDS011;18502;43.574;1.276;2023-03-15T05:53:43;14.18;;;2.65;;
31978;SDS011;18502;43.574;1.276;2023-03-15T05:56:09;23.15;;;2.33;;
31978;SDS011;18502;43.574;1.276;2023-03-15T05:58:35;20.85;;;3.05;;
31978;SDS011;18502;43.574;1.276;2023-03-15T06:01:01;10.13;;;1.52;;
31978;SDS011;18502;43.574;1.276;2023-03-15T06:03:28;20.65;;;2.28;;
31978;SDS011;18502;43.574;1.276;2023-03-15T06:05:55;17.70;;;2.92;;
31978;SDS011;18502;43.574;1.276;2023-03-15T06:08:25;21.30;;;2.92;;
31978;SDS011;18502;43.574;1.276;2023-03-15T06:10:50;14.30;;;1.90;;
31978;SDS011;18502;43.574;1.276;2023-03-15T06:13:16;13.90;;;1.95;;
31978;SDS011;18502;43.574;1.276;2023-03-15T06:15:42;17.13;;;2.00;;
31978;SDS011;18502;43.574;1.276;2023-03-15T06:18:07;15.23;;;2.33;;
31978;SDS011;18502;43.574;1.276;2023-03-15T06:20:33;16.00;;;2.88;;
31978;SDS011;18502;43.574;1.276;2023-03-15T06:22:59;11.60;;;1.83;;
31978;SDS011;18502;43.574;1.276;2023-03-15T06:25:25;16.88;;;3.08;;
31978;SDS011;18502;43.574;1.276;2023-03-15T06:27:51;12.80;;;1.58;;
31978;SDS011;18502;43.574;1.276;2023-03-15T06:30:17;21.15;;;1.90;;
31978;SDS011;18502;43.574;1.276;2023-03-15T06:32:44;12.48;;;1.90;;
31978;SDS011;18502;43.574;1.276;2023-03-15T06:35:10;18.20;;;2.10;;
31978;SDS011;18502;43.574;1.276;2023-03-15T06:37:35;12.27;;;2.28;;
31978;SDS011;18502;43.574;1.276;2023-03-15T06:40:02;19.73;;;1.88;;
31978;SDS011;18502;43.574;1.276;2023-03-15T06:42:32;15.48;;;1.73;;
31978;SDS011;18502;43.574;1.276;2023-03-15T06:44:58;17.73;;;2.67;;
31978;SDS011;18502;43.574;1.276;2023-03-15T06:47:24;17.33;;;2.15;;
31978;SDS011;18502;43.574;1.276;2023-03-15T06:49:49;11.57;;;2.28;;
31978;SDS011;18502;43.574;1.276;2023-03-15T06:52:15;14.60;;;2.60;;
31978;SDS011;18502;43.574;1.276;2023-03-15T06:54:42;13.55;;;1.90;;
31978;SDS011;18502;43.574;1.276;2023-03-15T06:57:07;16.05;;;2.97;;
31978;SDS011;18502;43.574;1.276;2023-03-15T06:59:33;13.88;;;2.17;;
31978;SDS011;18502;43.574;1.276;2023-03-15T07:01:59;14.88;;;2.00;;
31978;SDS011;18502;43.574;1.276;2023-03-15T07:04:25;18.73;;;3.05;;
31978;SDS011;18502;43.574;1.276;2023-03-15T07:06:51;20.15;;;2.83;;
31978;SDS011;18502;43.574;1.276;2023-03-15T07:09:16;21.05;;;2.83;;
31978;SDS011;18502;43.574;1.276;2023-03-15T07:11:42;18.48;;;1.88;;
31978;SDS011;18502;43.574;1.276;2023-03-15T07:14:08;11.88;;;1.73;;
31978;SDS011;18502;43.574;1.276;2023-03-15T07:16:33;12.52;;;1.83;;
31978;SDS011;18502;43.574;1.276;2023-03-15T07:18:59;20.50;;;2.20;;
31978;SDS011;18502;43.574;1.276;2023-03-15T07:21:26;13.55;;;2.00;;
31978;SDS011;18502;43.574;1.276;2023-03-15T07:23:51;13.52;;;2.20;;
31978;SDS011;18502;43.574;1.276;2023-03-15T07:26:17;13.75;;;1.73;;
31978;SDS011;18502;43.574;1.276;2023-03-15T07:28:43;24.80;;;3.47;;
31978;SDS011;18502;43.574;1.276;2023-03-15T07:31:09;12.27;;;1.83;;
31978;SDS011;18502;43.574;1.276;2023-03-15T07:33:35;12.88;;;1.98;;
31978;SDS011;18502;43.574;1.276;2023-03-15T07:36:01;8.98;;;2.22;;
31978;SDS011;18502;43.574;1.276;2023-03-15T07:38:28;16.67;;;3.00;;
31978;SDS011;18502;43.574;1.276;2023-03-15T07:40:55;15.60;;;3.47;;
31978;SDS011;18502;43.574;1.276;2023-03-15T07:43:21;10.88;;;1.67;;
31978;SDS011;18502;43.574;1.276;2023-03-15T07:45:46;16.70;;;2.05;;
31978;SDS011;18502;43.574;1.276;2023-03-15T07:48:12;9.52;;;2.25;;
31978;SDS011;18502;43.574;1.276;2023-03-15T07:50:38;14.55;;;2.90;;
31978;SDS011;18502;43.574;1.276;2023-03-15T07:53:05;12.38;;;2.40;;
31978;SDS011;18502;43.574;1.276;2023-03-15T07:55:31;11.05;;;2.22;;
31978;SDS011;18502;43.574;1.276;2023-03-15T07:57:58;18.80;;;2.20;;
31978;SDS011;18502;43.574;1.276;2023-03-15T08:00:23;10.20;;;2.45;;
31978;SDS011;18502;43.574;1.276;2023-03-15T08:02:49;9.52;;;1.45;;
31978;SDS011;18502;43.574;1.276;2023-03-15T08:05:15;13.65;;;2.58;;
31978;SDS011;18502;43.574;1.276;2023-03-15T08:07:44;11.85;;;2.47;;
31978;SDS011;18502;43.574;1.276;2023-03-15T08:10:10;11.00;;;2.10;;
31978;SDS011;18502;43.574;1.276;2023-03-15T08:12:37;18.90;;;3.35;;
31978;SDS011;18502;43.574;1.276;2023-03-15T08:15:05;10.48;;;2.50;;
31978;SDS011;18502;43.574;1.276;2023-03-15T08:17:31;17.85;;;2.40;;
31978;SDS011;18502;43.574;1.276;2023-03-15T08:19:56;17.00;;;2.28;;
31978;SDS011;18502;43.574;1.276;2023-03-15T08:22:22;10.82;;;3.05;;
31978;SDS011;18502;43.574;1.276;2023-03-15T08:24:48;13.68;;;2.97;;
31978;SDS011;18502;43.574;1.276;2023-03-15T08:27:17;15.77;;;3.17;;
31978;SDS011;18502;43.574;1.276;2023-03-15T08:29:43;19.23;;;2.63;;
31978;SDS011;18502;43.574;1.276;2023-03-15T08:32:08;13.07;;;2.25;;
31978;SDS011;18502;43.574;1.276;2023-03-15T08:34:36;10.68;;;1.60;;
31978;SDS011;18502;43.574;1.276;2023-03-15T08:37:02;13.48;;;2.05;;
31978;SDS011;18502;43.574;1.276;2023-03-15T08:39:27;12.25;;;2.45;;
31978;SDS011;18502;43.574;1.276;2023-03-15T08:41:53;14.57;;;1.92;;
31978;SDS011;18502;43.574;1.276;2023-03-15T08:44:19;16.90;;;2.70;;
31978;SDS011;18502;43.574;1.276;2023-03-15T08:46:45;14.90;;;2.17;;
31978;SDS011;18502;43.574;1.276;2023-03-15T08:49:11;9.82;;;1.77;;
31978;SDS011;18502;43.574;1.276;2023-03-15T08:51:37;19.13;;;2.47;;
31978;SDS011;18502;43.574;1.276;2023-03-15T08:54:03;10.73;;;1.70;;
31978;SDS011;18502;43.574;1.276;2023-03-15T08:56:29;10.80;;;2.00;;
31978;SDS011;18502;43.574;1.276;2023-03-15T08:58:56;17.48;;;2.60;;
31978;SDS011;18502;43.574;1.276;2023-03-15T09:01:22;12.35;;;1.90;;
31978;SDS011;18502;43.574;1.276;2023-03-15T09:03:47;6.80;;;1.92;;
31978;SDS011;18502;43.574;1.276;2023-03-15T09:06:14;12.10;;;1.88;;
31978;SDS011;18502;43.574;1.276;2023-03-15T09:08:40;12.25;;;3.13;;
31978;SDS011;18502;43.574;1.276;2023-03-15T09:11:05;9.40;;;2.17;;
31978;SDS011;18502;43.574;1.276;2023-03-15T09:13:31;10.82;;;2.03;;
31978;SDS011;18502;43.574;1.276;2023-03-15T09:15:57;6.43;;;1.20;;
31978;SDS011;18502;43.574;1.276;2023-03-15T09:18:23;4.57;;;1.00;;
31978;SDS011;18502;43.574;1.276;2023-03-15T09:20:49;8.52;;;1.02;;
31978;SDS011;18502;43.574;1.276;2023-03-15T09:23:15;9.80;;;1.27;;
31978;SDS011;18502;43.574;1.276;2023-03-15T09:25:40;8.32;;;1.75;;
31978;SDS011;18502;43.574;1.276;2023-03-15T09:28:07;8.88;;;1.92;;
31978;SDS011;18502;43.574;1.276;2023-03-15T09:30:35;9.60;;;1.65;;
31978;SDS011;18502;43.574;1.276;2023-03-15T09:33:02;11.93;;;1.85;;
31978;SDS011;18502;43.574;1.276;2023-03-15T09:35:28;7.75;;;1.95;;
31978;SDS011;18502;43.574;1.276;2023-03-15T09:37:54;7.93;;;1.50;;
31978;SDS011;18502;43.574;1.276;2023-03-15T09:40:27;5.85;;;1.42;;
31978;SDS011;18502;43.574;1.276;2023-03-15T09:48:51;5.28;;;1.25;;
31978;SDS011;18502;43.574;1.276;2023-03-15T09:54:03;4.60;;;1.15;;
31978;SDS011;18502;43.574;1.276;2023-03-15T09:56:59;6.80;;;1.20;;
31978;SDS011;18502;43.574;1.276;2023-03-15T09:59:48;5.40;;;0.90;;
31978;SDS011;18502;43.574;1.276;2023-03-15T10:02:18;6.28;;;0.93;;
31978;SDS011;18502;43.574;1.276;2023-03-15T10:04:51;3.53;;;1.33;;
31978;SDS011;18502;43.574;1.276;2023-03-15T10:07:30;3.43;;;1.07;;
31978;SDS011;18502;43.574;1.276;2023-03-15T10:09:57;4.00;;;0.85;;
31978;SDS011;18502;43.574;1.276;2023-03-15T10:12:30;5.30;;;1.58;;
31978;SDS011;18502;43.574;1.276;2023-03-15T10:20:32;4.03;;;0.90;;
31978;SDS011;18502;43.574;1.276;2023-03-15T10:23:04;4.20;;;1.20;;
31978;SDS011;18502;43.574;1.276;2023-03-15T10:25:43;3.42;;;0.93;;
31978;SDS011;18502;43.574;1.276;2023-03-15T10:28:15;5.15;;;1.10;;
31978;SDS011;18502;43.574;1.276;2023-03-15T10:30:49;7.05;;;0.90;;
31978;SDS011;18502;43.574;1.276;2023-03-15T10:35:50;4.78;;;1.05;;
31978;SDS011;18502;43.574;1.276;2023-03-15T10:38:16;6.88;;;1.35;;
31978;SDS011;18502;43.574;1.276;2023-03-15T10:40:57;7.85;;;1.45;;
31978;SDS011;18502;43.574;1.276;2023-03-15T10:43:30;9.27;;;1.88;;
31978;SDS011;18502;43.574;1.276;2023-03-15T10:48:51;6.18;;;1.00;;
31978;SDS011;18502;43.574;1.276;2023-03-15T10:51:27;4.95;;;1.27;;
31978;SDS011;18502;43.574;1.276;2023-03-15T10:53:58;7.60;;;2.05;;
31978;SDS011;18502;43.574;1.276;2023-03-15T10:56:29;3.78;;;1.02;;
31978;SDS011;18502;43.574;1.276;2023-03-15T10:58:58;4.68;;;1.10;;
31978;SDS011;18502;43.574;1.276;2023-03-15T11:01:27;5.15;;;0.90;;
31978;SDS011;18502;43.574;1.276;2023-03-15T11:06:48;4.18;;;0.70;;
31978;SDS011;18502;43.574;1.276;2023-03-15T11:09:23;2.08;;;0.68;;
31978;SDS011;18502;43.574;1.276;2023-03-15T11:14:24;5.32;;;1.05;;
31978;SDS011;18502;43.574;1.276;2023-03-15T11:16:54;6.13;;;0.82;;
31978;SDS011;18502;43.574;1.276;2023-03-15T11:19:24;1.75;;;0.88;;
31978;SDS011;18502;43.574;1.276;2023-03-15T11:21:52;6.40;;;0.93;;
31978;SDS011;18502;43.574;1.276;2023-03-15T11:24:28;4.82;;;1.00;;
31978;SDS011;18502;43.574;1.276;2023-03-15T11:27:02;4.63;;;0.60;;
31978;SDS011;18502;43.574;1.276;2023-03-15T11:29:35;5.05;;;1.17;;
31978;SDS011;18502;43.574;1.276;2023-03-15T11:32:14;7.57;;;1.40;;
31978;SDS011;18502;43.574;1.276;2023-03-15T11:34:49;2.53;;;0.93;;
31978;SDS011;18502;43.574;1.276;2023-03-15T11:37:25;3.80;;;0.82;;
31978;SDS011;18502;43.574;1.276;2023-03-15T11:39:59;4.35;;;0.93;;
31978;SDS011;18502;43.574;1.276;2023-03-15T11:42:37;5.82;;;1.40;;
31978;SDS011;18502;43.574;1.276;2023-03-15T11:48:03;2.17;;;0.70;;
31978;SDS011;18502;43.574;1.276;2023-03-15T11:51:00;3.22;;;0.70;;
31978;SDS011;18502;43.574;1.276;2023-03-15T11:53:30;5.43;;;1.35;;
31978;SDS011;18502;43.574;1.276;2023-03-15T11:56:20;2.90;;;0.98;;
31978;SDS011;18502;43.574;1.276;2023-03-15T11:59:09;3.08;;;1.05;;
31978;SDS011;18502;43.574;1.276;2023-03-15T12:01:35;5.82;;;1.42;;
31978;SDS011;18502;43.574;1.276;2023-03-15T12:06:49;4.72;;;1.00;;
31978;SDS011;18502;43.574;1.276;2023-03-15T12:12:03;4.10;;;1.15;;
31978;SDS011;18502;43.574;1.276;2023-03-15T12:14:31;2.75;;;1.00;;
31978;SDS011;18502;43.574;1.276;2023-03-15T12:19:55;2.67;;;0.68;;
31978;SDS011;18502;43.574;1.276;2023-03-15T12:22:33;5.40;;;1.48;;
31978;SDS011;18502;43.574;1.276;2023-03-15T12:25:09;4.30;;;0.90;;
31978;SDS011;18502;43.574;1.276;2023-03-15T12:27:35;2.10;;;0.95;;
31978;SDS011;18502;43.574;1.276;2023-03-15T12:30:03;2.58;;;0.93;;
31978;SDS011;18502;43.574;1.276;2023-03-15T12:32:35;3.70;;;0.80;;
31978;SDS011;18502;43.574;1.276;2023-03-15T12:53:34;4.07;;;0.90;;
31978;SDS011;18502;43.574;1.276;2023-03-15T12:58:43;4.75;;;1.30;;
31978;SDS011;18502;43.574;1.276;2023-03-15T13:01:13;6.63;;;0.73;;
31978;SDS011;18502;43.574;1.276;2023-03-15T13:03:41;5.05;;;1.00;;
31978;SDS011;18502;43.574;1.276;2023-03-15T13:06:11;3.40;;;0.73;;
31978;SDS011;18502;43.574;1.276;2023-03-15T13:25:13;2.47;;;1.25;;
31978;SDS011;18502;43.574;1.276;2023-03-15T13:30:41;4.63;;;1.40;;
31978;SDS011;18502;43.574;1.276;2023-03-15T13:33:10;3.92;;;1.00;;
31978;SDS011;18502;43.574;1.276;2023-03-15T13:35:45;3.20;;;1.27;;
31978;SDS011;18502;43.574;1.276;2023-03-15T13:40:57;3.73;;;0.70;;
31978;SDS011;18502;43.574;1.276;2023-03-15T13:43:29;1.98;;;0.50;;
31978;SDS011;18502;43.574;1.276;2023-03-15T13:46:00;4.55;;;0.65;;
31978;SDS011;18502;43.574;1.276;2023-03-15T13:48:30;2.67;;;0.77;;
31978;SDS011;18502;43.574;1.276;2023-03-15T13:51:07;3.00;;;0.93;;
31978;SDS011;18502;43.574;1.276;2023-03-15T13:53:44;2.28;;;0.52;;
31978;SDS011;18502;43.574;1.276;2023-03-15T13:56:16;1.83;;;0.60;;
31978;SDS011;18502;43.574;1.276;2023-03-15T13:58:44;1.10;;;0.60;;
31978;SDS011;18502;43.574;1.276;2023-03-15T14:01:11;3.90;;;0.95;;
31978;SDS011;18502;43.574;1.276;2023-03-15T14:03:39;2.38;;;0.68;;
31978;SDS011;18502;43.574;1.276;2023-03-15T14:08:37;2.28;;;0.70;;
31978;SDS011;18502;43.574;1.276;2023-03-15T14:11:15;2.33;;;0.88;;
31978;SDS011;18502;43.574;1.276;2023-03-15T14:14:12;1.35;;;0.82;;
31978;SDS011;18502;43.574;1.276;2023-03-15T14:16:45;2.13;;;0.60;;
31978;SDS011;18502;43.574;1.276;2023-03-15T14:21:44;1.55;;;0.50;;
31978;SDS011;18502;43.574;1.276;2023-03-15T14:24:17;1.23;;;0.38;;
31978;SDS011;18502;43.574;1.276;2023-03-15T14:29:52;1.73;;;0.60;;
31978;SDS011;18502;43.574;1.276;2023-03-15T14:32:33;0.63;;;0.45;;
31978;SDS011;18502;43.574;1.276;2023-03-15T14:35:02;0.98;;;0.40;;
31978;SDS011;18502;43.574;1.276;2023-03-15T14:37:42;2.35;;;0.50;;
31978;SDS011;18502;43.574;1.276;2023-03-15T14:40:26;1.20;;;0.40;;
31978;SDS011;18502;43.574;1.276;2023-03-15T14:42:58;1.80;;;0.30;;
31978;SDS011;18502;43.574;1.276;2023-03-15T14:45:25;4.15;;;0.73;;
31978;SDS011;18502;43.574;1.276;2023-03-15T14:47:52;1.85;;;0.60;;
31978;SDS011;18502;43.574;1.276;2023-03-15T14:50:22;2.63;;;0.50;;
31978;SDS011;18502;43.574;1.276;2023-03-15T14:52:49;1.15;;;0.43;;
31978;SDS011;18502;43.574;1.276;2023-03-15T14:55:17;3.47;;;0.55;;
31978;SDS011;18502;43.574;1.276;2023-03-15T14:57:45;1.27;;;0.40;;
31978;SDS011;18502;43.574;1.276;2023-03-15T15:00:11;1.65;;;0.70;;
31978;SDS011;18502;43.574;1.276;2023-03-15T15:02:41;1.30;;;0.47;;
31978;SDS011;18502;43.574;1.276;2023-03-15T15:05:19;3.05;;;0.70;;
31978;SDS011;18502;43.574;1.276;2023-03-15T15:07:46;1.15;;;0.45;;
31978;SDS011;18502;43.574;1.276;2023-03-15T15:10:12;1.80;;;0.50;;
31978;SDS011;18502;43.574;1.276;2023-03-15T15:12:38;1.23;;;0.35;;
31978;SDS011;18502;43.574;1.276;2023-03-15T15:15:14;1.30;;;0.40;;
31978;SDS011;18502;43.574;1.276;2023-03-15T15:17:45;2.10;;;0.50;;
31978;SDS011;18502;43.574;1.276;2023-03-15T15:20:11;2.60;;;0.55;;
31978;SDS011;18502;43.574;1.276;2023-03-15T15:22:39;3.78;;;0.70;;
31978;SDS011;18502;43.574;1.276;2023-03-15T15:27:41;1.08;;;0.40;;
31978;SDS011;18502;43.574;1.276;2023-03-15T15:30:17;1.95;;;0.50;;
31978;SDS011;18502;43.574;1.276;2023-03-15T15:32:46;2.33;;;0.50;;
31978;SDS011;18502;43.574;1.276;2023-03-15T15:35:13;2.45;;;0.77;;
31978;SDS011;18502;43.574;1.276;2023-03-15T15:37:41;1.52;;;0.47;;
31978;SDS011;18502;43.574;1.276;2023-03-15T15:43:04;2.55;;;0.50;;
31978;SDS011;18502;43.574;1.276;2023-03-15T15:45:30;2.22;;;0.70;;
31978;SDS011;18502;43.574;1.276;2023-03-15T15:47:59;1.33;;;0.52;;
31978;SDS011;18502;43.574;1.276;2023-03-15T15:50:30;2.05;;;0.40;;
31978;SDS011;18502;43.574;1.276;2023-03-15T15:52:58;1.52;;;0.50;;
31978;SDS011;18502;43.574;1.276;2023-03-15T15:55:27;1.63;;;0.60;;
31978;SDS011;18502;43.574;1.276;2023-03-15T15:57:55;0.50;;;0.30;;
31978;SDS011;18502;43.574;1.276;2023-03-15T16:00:22;1.23;;;0.77;;
31978;SDS011;18502;43.574;1.276;2023-03-15T16:02:49;1.48;;;0.70;;
31978;SDS011;18502;43.574;1.276;2023-03-15T16:05:28;3.20;;;0.77;;
31978;SDS011;18502;43.574;1.276;2023-03-15T16:07:55;2.08;;;0.55;;
31978;SDS011;18502;43.574;1.276;2023-03-15T16:10:28;1.70;;;0.63;;
31978;SDS011;18502;43.574;1.276;2023-03-15T16:13:00;2.85;;;0.63;;
31978;SDS011;18502;43.574;1.276;2023-03-15T16:15:28;2.35;;;0.70;;
31978;SDS011;18502;43.574;1.276;2023-03-15T16:17:54;1.98;;;0.77;;
31978;SDS011;18502;43.574;1.276;2023-03-15T16:20:20;2.35;;;0.73;;
31978;SDS011;18502;43.574;1.276;2023-03-15T16:22:50;2.25;;;0.52;;
31978;SDS011;18502;43.574;1.276;2023-03-15T16:25:20;1.92;;;0.50;;
31978;SDS011;18502;43.574;1.276;2023-03-15T16:27:51;2.75;;;0.68;;
31978;SDS011;18502;43.574;1.276;2023-03-15T16:30:23;2.92;;;0.50;;
31978;SDS011;18502;43.574;1.276;2023-03-15T16:32:58;1.55;;;0.57;;